Stations météo

réclame
Mon MeteoGroup
Sule Skerry, Grande-Bretagne (3010): Température de l'air & dewpoint: 14.11.2017 00:00:00 - 20.11.2017 00:00:00 (GMT)Sule Skerry, Grande-Bretagne (3010): Vitesse du vent & gusts: 14.11.2017 00:00:00 - 20.11.2017 00:00:00 (GMT)Sule Skerry, Grande-Bretagne (3010): Direction du vent: 14.11.2017 00:00:00 - 20.11.2017 00:00:00 (GMT)Sule Skerry, Grande-Bretagne (3010): reduced air pressure: 14.11.2017 00:00:00 - 20.11.2017 00:00:00 (GMT)
Date & Time tt [°C] td [°C] ff [km/h] ff [knt] fx [km/h] fx [knt] dd ppp [hPa]
20.11.2017 00:00:00 - - - - - - - -
19.11.2017 23:00:00 6,7 2,8 21 11 - - SE 1014,5
19.11.2017 22:00:00 6,8 1,0 15 8 - - SE 1015,3
19.11.2017 21:00:00 6,4 1,3 15 8 - - E 1016,1
19.11.2017 20:00:00 6,8 1,8 11 6 - - ESE 1016,5
19.11.2017 19:00:00 6,5 1,9 13 7 - - NNE 1016,9
19.11.2017 18:00:00 6,5 0,6 4 2 - - NE 1017,5
19.11.2017 17:00:00 6,5 0,9 5 3 - - N 1017,9
19.11.2017 16:00:00 6,5 1,3 11 6 - - N 1018,5
19.11.2017 15:00:00 6,1 2,2 18 10 - - N 1018,5
19.11.2017 14:00:00 6,6 1,6 18 10 - - NW 1018,9
19.11.2017 13:00:00 5,9 1,8 18 10 - - W 1019,3
19.11.2017 12:00:00 6,8 1,0 18 10 - - NW 1019,5
19.11.2017 11:00:00 6,8 1,6 26 14 - - NNW 1019,5
19.11.2017 10:00:00 6,7 0,4 28 15 - - NW 1019,7
19.11.2017 09:00:00 7,2 1,6 31 17 - - NNW 1019,5
19.11.2017 08:00:00 6,5 0,6 31 17 46 25 NW 1019,5
19.11.2017 07:00:00 7,0 1,4 35 19 - - NNW 1019,1
19.11.2017 06:00:00 7,2 2,2 35 19 57 31 NNW 1019,3
19.11.2017 05:00:00 6,7 1,2 41 22 52 28 NNW 1019,5
19.11.2017 04:00:00 6,8 1,2 41 22 52 28 NNW 1019,1
19.11.2017 03:00:00 7,1 1,1 39 21 52 28 NW 1018,9
19.11.2017 02:00:00 7,0 1,1 41 22 59 32 NNW 1018,7
19.11.2017 01:00:00 7,3 2,1 42 23 59 32 NW 1018,1
19.11.2017 00:00:00 7,2 2,0 41 22 59 32 NW 1018,1
18.11.2017 23:00:00 7,4 2,4 48 26 63 34 NNW 1018,1
18.11.2017 22:00:00 7,3 2,3 46 25 61 33 NW 1017,7
18.11.2017 21:00:00 7,9 2,9 46 25 67 36 NNW 1017,1
18.11.2017 20:00:00 7,5 2,5 50 27 65 35 NW 1016,5
18.11.2017 19:00:00 7,5 2,6 52 28 72 39 NNW 1015,9
18.11.2017 18:00:00 7,6 3,6 50 27 70 38 NW 1015,3
18.11.2017 17:00:00 7,3 2,7 54 29 68 37 NW 1014,5
18.11.2017 16:00:00 7,5 2,9 52 28 67 36 NW 1014,3
18.11.2017 15:00:00 7,8 3,0 54 29 68 37 NW 1013,9
18.11.2017 14:00:00 7,9 4,7 54 29 74 40 NNW 1013,3
18.11.2017 13:00:00 7,2 4,7 57 31 76 41 WNW 1013,1
18.11.2017 12:00:00 7,5 4,7 54 29 74 40 NW 1012,3
18.11.2017 11:00:00 7,6 4,9 48 26 85 46 WNW 1012,3
18.11.2017 10:00:00 6,8 4,1 52 28 81 44 WNW 1011,9
18.11.2017 09:00:00 7,5 2,8 50 27 70 38 WNW 1011,9
18.11.2017 08:00:00 7,6 2,2 54 29 76 41 NW 1011,7
18.11.2017 07:00:00 7,7 3,0 57 31 76 41 NW 1010,9
18.11.2017 06:00:00 7,4 1,8 59 32 81 44 NW 1010,7
18.11.2017 05:00:00 7,3 1,8 65 35 83 45 NW 1010,3
18.11.2017 04:00:00 7,7 0,9 63 34 89 48 NW 1009,7
18.11.2017 03:00:00 7,5 0,3 59 32 87 47 WNW 1009,7
18.11.2017 02:00:00 7,7 1,1 57 31 81 44 WNW 1009,5
18.11.2017 01:00:00 7,8 1,4 59 32 78 42 WNW 1008,9
18.11.2017 00:00:00 7,0 2,3 55 30 81 44 WNW 1008,7
17.11.2017 23:00:00 7,2 3,7 65 35 87 47 WNW 1008,3
17.11.2017 22:00:00 6,2 3,1 54 29 81 44 WNW 1008,9
17.11.2017 21:00:00 6,2 3,1 52 28 76 41 WNW 1008,7
17.11.2017 20:00:00 7,7 3,3 59 32 83 45 WNW 1008,7
17.11.2017 19:00:00 7,1 5,1 46 25 87 47 WNW 1008,9
17.11.2017 18:00:00 7,1 4,8 54 29 80 43 W 1009,1
17.11.2017 17:00:00 7,7 5,3 54 29 80 43 W 1009,7
17.11.2017 16:00:00 7,0 5,3 55 30 83 45 WNW 1009,9
17.11.2017 15:00:00 7,0 4,9 54 29 72 39 WNW 1010,3
17.11.2017 14:00:00 8,3 6,2 52 28 - - W 1010,7
17.11.2017 13:00:00 8,9 6,6 50 27 83 45 W 1011,3
17.11.2017 12:00:00 6,2 3,4 68 37 94 51 WNW 1011,9
17.11.2017 11:00:00 9,0 6,6 57 31 87 47 W 1011,9
17.11.2017 10:00:00 7,7 5,5 63 34 83 45 W 1012,1
17.11.2017 09:00:00 8,1 5,9 55 30 80 43 W 1012,5
17.11.2017 08:00:00 8,4 6,2 54 29 89 48 WSW 1012,5
17.11.2017 07:00:00 7,2 5,1 55 30 89 48 W 1012,9
17.11.2017 06:00:00 8,2 6,2 54 29 87 47 W 1012,9
17.11.2017 05:00:00 8,6 5,7 61 33 91 49 W 1013,1
17.11.2017 04:00:00 7,3 4,1 70 38 91 49 W 1013,3
17.11.2017 03:00:00 8,6 5,4 68 37 96 52 WNW 1013,3
17.11.2017 02:00:00 9,2 5,7 67 36 85 46 W 1013,5
17.11.2017 01:00:00 8,0 5,1 61 33 96 52 W 1013,9
17.11.2017 00:00:00 8,4 5,1 65 35 87 47 W 1014,3
16.11.2017 23:00:00 7,8 5,7 57 31 91 49 W 1014,5
16.11.2017 22:00:00 7,3 3,5 55 30 83 45 W 1015,1
16.11.2017 21:00:00 8,2 3,1 50 27 70 38 W 1014,9
16.11.2017 20:00:00 8,2 3,1 52 28 89 48 W 1014,7
16.11.2017 19:00:00 7,9 4,2 63 34 96 52 W 1014,1
16.11.2017 18:00:00 7,1 3,7 50 27 83 45 W 1013,3
16.11.2017 17:00:00 7,6 3,0 67 36 87 47 WNW 1012,3
16.11.2017 16:00:00 6,2 2,8 67 36 91 49 WNW 1012,1
16.11.2017 15:00:00 7,3 2,6 57 31 89 48 W 1010,5
16.11.2017 14:00:00 5,7 2,0 61 33 91 49 W 1009,9
16.11.2017 13:00:00 5,6 1,1 50 27 81 44 WNW 1009,3
16.11.2017 12:00:00 8,1 3,0 59 32 100 54 W 1008,1
16.11.2017 11:00:00 7,1 2,8 78 42 102 55 WNW 1007,5
16.11.2017 10:00:00 8,0 2,6 68 37 91 49 WNW 1005,7
16.11.2017 09:00:00 8,1 3,7 61 33 81 44 W 1004,7
16.11.2017 08:00:00 7,4 3,5 59 32 87 47 W 1004,1
16.11.2017 07:00:00 7,5 4,2 54 29 81 44 W 1003,1
16.11.2017 06:00:00 8,7 5,8 50 27 80 43 W 1001,7
16.11.2017 05:00:00 9,1 7,0 52 28 78 42 W 1000,7
16.11.2017 04:00:00 9,4 8,7 54 29 72 39 W 1000,3
16.11.2017 03:00:00 9,7 9,4 41 22 57 31 SW 1000,0
16.11.2017 02:00:00 9,6 8,7 44 24 80 43 SW 1000,9
16.11.2017 01:00:00 11,6 10,7 63 34 80 43 S 1000,8
16.11.2017 00:00:00 10,0 9,0 50 27 68 37 SSE 1001,8
15.11.2017 23:00:00 9,3 8,0 50 27 61 33 SSE 1003,7
15.11.2017 22:00:00 10,0 8,2 46 25 61 33 S 1005,7
15.11.2017 21:00:00 9,2 7,2 44 24 63 34 SSE 1007,3
15.11.2017 20:00:00 9,3 7,1 48 26 61 33 SSE 1009,1
15.11.2017 19:00:00 8,9 6,7 48 26 59 32 SSE 1010,9
15.11.2017 18:00:00 7,8 5,3 42 23 54 29 SSE 1012,5
15.11.2017 17:00:00 8,7 5,2 35 19 - - S 1014,1
15.11.2017 16:00:00 8,4 - 34 18 - - S 1015,5
15.11.2017 15:00:00 8,4 - 26 14 - - S 1016,9
15.11.2017 14:00:00 8,6 - 28 15 - - SSW 1017,9
15.11.2017 13:00:00 8,2 - 22 12 - - SSW 1018,5
15.11.2017 12:00:00 8,5 - 21 11 - - SW 1019,1
15.11.2017 11:00:00 7,8 - 13 7 - - SW 1019,7
15.11.2017 10:00:00 8,3 - 22 12 - - W 1019,7
15.11.2017 09:00:00 7,9 - 26 14 - - WNW 1019,5
15.11.2017 08:00:00 8,3 - 22 12 46 25 W 1019,1
15.11.2017 07:00:00 7,9 - 26 14 54 29 WNW 1018,5
15.11.2017 06:00:00 8,4 - 35 19 59 32 W 1018,1
15.11.2017 05:00:00 8,7 - 39 21 52 28 WNW 1017,5
15.11.2017 04:00:00 8,5 - 37 20 55 30 W 1017,3
15.11.2017 03:00:00 8,6 - 42 23 57 31 WNW 1016,9
15.11.2017 02:00:00 8,2 - 42 23 63 34 WNW 1016,5
15.11.2017 01:00:00 8,4 - 39 21 61 33 WNW 1015,9
15.11.2017 00:00:00 8,9 - 41 22 67 36 W 1015,3
14.11.2017 23:00:00 9,0 - 44 24 76 41 WNW 1014,5
14.11.2017 22:00:00 7,7 - 50 27 68 37 WNW 1013,7
14.11.2017 21:00:00 9,3 - 44 24 68 37 WNW 1013,1
14.11.2017 20:00:00 9,4 - 44 24 65 35 W 1012,3
14.11.2017 19:00:00 8,1 - 48 26 74 40 W 1012,5
14.11.2017 18:00:00 8,8 - 50 27 67 36 W 1012,1
14.11.2017 17:00:00 10,2 - 54 29 68 37 W 1011,7
14.11.2017 16:00:00 9,2 - 52 28 68 37 W 1011,9
14.11.2017 15:00:00 9,8 - 44 24 65 35 W 1011,9
14.11.2017 14:00:00 9,8 - 39 21 54 29 WSW 1011,9
14.11.2017 13:00:00 9,6 - 39 21 52 28 WSW 1012,3
14.11.2017 12:00:00 9,6 - 31 17 57 31 WSW 1012,5
14.11.2017 11:00:00 8,9 - 29 16 57 31 WSW 1012,9
14.11.2017 10:00:00 9,3 - 34 18 48 26 W 1012,9
14.11.2017 09:00:00 9,6 - 34 18 - - W 1012,3
14.11.2017 08:00:00 9,2 - 35 19 48 26 W 1012,1
14.11.2017 07:00:00 9,2 - 37 20 55 30 WNW 1011,9
14.11.2017 06:00:00 9,2 - 44 24 55 30 W 1011,3
14.11.2017 05:00:00 9,3 - 37 20 50 27 WNW 1010,9
14.11.2017 04:00:00 9,4 - 42 23 54 29 WNW 1010,3
14.11.2017 03:00:00 9,5 - 41 22 55 30 WNW 1009,9
14.11.2017 02:00:00 9,6 - 41 22 57 31 WNW 1009,3
14.11.2017 01:00:00 9,6 - 44 24 55 30 WNW 1008,9
14.11.2017 00:00:00 9,8 - 41 22 54 29 WNW 1008,3

tt = Température de l'air
td = dewpoint
ff = Vitesse du vent
fx = gusts
dd = Direction du vent
ppp = reduced air pressure

stations d'obs. à proximité